createdAt,value
2023-02-11T00:00:39.919Z,2.15
2023-02-11T00:03:09.901Z,2.21
2023-02-11T00:05:49.037Z,2.19
2023-02-11T00:08:23.860Z,2.11
2023-02-11T00:11:11.300Z,2.34
2023-02-11T00:14:07.288Z,2.26
2023-02-11T00:16:53.987Z,2.43
2023-02-11T00:19:26.961Z,2.20
2023-02-11T00:21:57.227Z,2.20
2023-02-11T00:24:30.102Z,2.21
2023-02-11T00:27:04.646Z,1.96
2023-02-11T00:29:41.724Z,2.16
2023-02-11T00:32:11.516Z,2.56
2023-02-11T00:34:47.713Z,2.45
2023-02-11T00:37:26.749Z,2.17
2023-02-11T00:39:56.655Z,2.11
2023-02-11T00:42:25.629Z,2.25
2023-02-11T00:44:53.182Z,2.34
2023-02-11T00:47:19.840Z,2.26
2023-02-11T00:49:46.503Z,2.19
2023-02-11T00:52:27.905Z,2.35
2023-02-11T00:54:54.525Z,2.39
2023-02-11T00:57:22.910Z,2.27
2023-02-11T00:59:49.670Z,2.16
2023-02-11T01:02:24.334Z,2.27
2023-02-11T01:04:56.735Z,2.21
2023-02-11T01:07:33.705Z,2.13
2023-02-11T01:10:26.862Z,2.19
2023-02-11T01:12:53.478Z,2.19
2023-02-11T01:15:20.431Z,2.17
2023-02-11T01:17:50.070Z,2.17
2023-02-11T01:20:20.384Z,2.09
2023-02-11T01:22:46.998Z,2.04
2023-02-11T01:25:26.957Z,2.36
2023-02-11T01:27:53.661Z,2.22
2023-02-11T01:30:20.256Z,2.06
2023-02-11T01:33:06.499Z,2.23
2023-02-11T01:35:38.756Z,2.09
2023-02-11T01:38:07.186Z,2.01
2023-02-11T01:40:34.215Z,1.76
2023-02-11T01:43:11.116Z,1.72
2023-02-11T01:45:51.460Z,1.87
2023-02-11T01:48:25.877Z,1.71
2023-02-11T01:50:59.545Z,1.60
2023-02-11T01:53:26.608Z,1.58
2023-02-11T01:55:54.200Z,1.58
2023-02-11T01:58:21.214Z,1.50
2023-02-11T02:00:48.307Z,1.45
2023-02-11T02:03:22.570Z,1.53
2023-02-11T02:06:00.586Z,1.70
2023-02-11T02:08:38.134Z,1.75
2023-02-11T02:11:05.647Z,1.73
2023-02-11T02:13:37.129Z,1.75
2023-02-11T02:16:10.188Z,1.63
2023-02-11T02:19:03.949Z,1.54
2023-02-11T02:21:31.007Z,1.34
2023-02-11T02:24:37.401Z,1.38
2023-02-11T02:27:50.737Z,1.60
2023-02-11T02:30:49.130Z,1.66
2023-02-11T02:33:30.077Z,1.79
2023-02-11T02:36:25.883Z,1.77
2023-02-11T02:39:13.634Z,1.63
2023-02-11T02:41:50.480Z,1.61
2023-02-11T02:44:31.318Z,1.52
2023-02-11T02:46:58.404Z,1.55
2023-02-11T02:49:25.361Z,1.65
2023-02-11T02:52:30.998Z,1.64
2023-02-11T02:55:23.080Z,1.59
2023-02-11T02:58:10.418Z,1.50
2023-02-11T03:01:01.805Z,1.60
2023-02-11T03:03:43.505Z,1.49
2023-02-11T03:06:36.406Z,1.46
2023-02-11T03:09:14.642Z,1.42
2023-02-11T03:11:41.461Z,1.33
2023-02-11T03:14:24.619Z,1.23
2023-02-11T03:16:57.768Z,1.21
2023-02-11T03:19:35.292Z,1.35
2023-02-11T03:22:07.796Z,1.38
2023-02-11T03:24:52.041Z,1.57
2023-02-11T03:27:31.821Z,1.43
2023-02-11T03:30:13.659Z,1.27
2023-02-11T03:33:05.030Z,1.22
2023-02-11T03:36:04.852Z,1.24
2023-02-11T03:38:36.527Z,1.36
2023-02-11T03:41:08.057Z,1.52
2023-02-11T03:44:01.736Z,1.30
2023-02-11T03:46:40.702Z,1.36
2023-02-11T03:49:20.787Z,1.38
2023-02-11T03:51:53.024Z,1.41
2023-02-11T03:54:27.147Z,1.46
2023-02-11T03:56:58.081Z,1.44
2023-02-11T03:59:30.167Z,1.43
2023-02-11T04:02:00.199Z,1.40
2023-02-11T04:04:35.688Z,1.41
2023-02-11T04:07:02.340Z,1.32
2023-02-11T04:09:28.949Z,1.36
2023-02-11T04:12:04.162Z,1.31
2023-02-11T04:14:32.995Z,1.14
2023-02-11T04:16:59.646Z,1.20
2023-02-11T04:19:26.520Z,1.24
2023-02-11T04:21:53.198Z,1.22
2023-02-11T04:24:28.608Z,1.24
2023-02-11T04:26:59.246Z,1.14
2023-02-11T04:29:28.821Z,1.09
2023-02-11T04:31:58.456Z,1.16
2023-02-11T04:34:27.734Z,1.26
2023-02-11T04:36:57.633Z,1.34
2023-02-11T04:39:24.327Z,1.40
2023-02-11T04:41:56.949Z,1.34
2023-02-11T04:44:33.209Z,1.35
2023-02-11T04:47:04.005Z,1.30
2023-02-11T04:49:39.890Z,1.25
2023-02-11T04:52:12.764Z,1.14
2023-02-11T04:54:43.571Z,1.22
2023-02-11T04:57:10.189Z,1.39
2023-02-11T04:59:36.945Z,1.36
2023-02-11T05:02:05.407Z,1.31
2023-02-11T05:04:32.197Z,1.32
2023-02-11T05:07:06.964Z,1.39
2023-02-11T05:09:34.484Z,1.41
2023-02-11T05:12:01.206Z,1.44
2023-02-11T05:14:32.374Z,1.31
2023-02-11T05:17:10.428Z,1.23
2023-02-11T05:19:39.335Z,1.30
2023-02-11T05:22:06.031Z,1.23
2023-02-11T05:24:38.944Z,1.17
2023-02-11T05:27:05.607Z,1.15
2023-02-11T05:29:39.724Z,1.18
2023-02-11T05:32:06.412Z,1.00
2023-02-11T05:34:36.261Z,0.96
2023-02-11T05:37:06.133Z,1.03
2023-02-11T05:39:32.740Z,1.07
2023-02-11T05:41:59.369Z,1.07
2023-02-11T05:44:27.284Z,0.98
2023-02-11T05:46:53.922Z,0.90
2023-02-11T05:49:20.538Z,1.01
2023-02-11T05:51:47.473Z,1.07
2023-02-11T05:54:16.178Z,0.99
2023-02-11T05:56:44.790Z,0.86
2023-02-11T05:59:15.516Z,0.85
2023-02-11T06:01:42.134Z,0.95
2023-02-11T06:04:09.121Z,0.91
2023-02-11T06:06:35.797Z,0.88
2023-02-11T06:09:02.673Z,0.97
2023-02-11T06:11:31.904Z,0.82
2023-02-11T06:13:58.469Z,0.77
2023-02-11T06:16:31.604Z,0.74
2023-02-11T06:19:02.497Z,0.90
2023-02-11T06:21:42.723Z,0.98
2023-02-11T06:24:44.325Z,0.97
2023-02-11T06:27:07.534Z,0.81
2023-02-11T06:29:34.175Z,0.82
2023-02-11T06:32:04.580Z,0.89
2023-02-11T06:34:34.162Z,1.00
2023-02-11T06:37:07.280Z,0.91
2023-02-11T06:39:39.185Z,0.95
2023-02-11T06:42:08.679Z,0.99
2023-02-11T06:44:35.325Z,0.90
2023-02-11T06:47:12.099Z,1.04
2023-02-11T06:49:38.698Z,1.15
2023-02-11T06:52:05.370Z,1.02
2023-02-11T06:54:34.296Z,1.04
2023-02-11T06:57:01.050Z,1.09
2023-02-11T06:59:33.152Z,1.17
2023-02-11T07:02:01.407Z,1.18
2023-02-11T07:04:28.125Z,1.22
2023-02-11T07:06:57.972Z,1.36
2023-02-11T07:09:24.719Z,1.30
2023-02-11T07:11:57.100Z,1.30
2023-02-11T07:14:23.850Z,1.43
2023-02-11T07:16:57.863Z,1.53
2023-02-11T07:19:24.594Z,1.66
2023-02-11T07:21:51.264Z,1.98
2023-02-11T07:24:20.190Z,2.10
2023-02-11T07:26:47.860Z,2.45
2023-02-11T07:29:18.396Z,2.53
2023-02-11T07:31:45.401Z,2.73
2023-02-11T07:34:12.111Z,2.78
2023-02-11T07:36:38.720Z,2.90
2023-02-11T07:39:05.407Z,3.16
2023-02-11T07:41:44.953Z,3.06
2023-02-11T07:44:17.905Z,3.11
2023-02-11T07:46:49.020Z,3.04
2023-02-11T07:49:25.065Z,3.24
2023-02-11T07:51:55.379Z,3.14
2023-02-11T07:54:22.091Z,3.13
2023-02-11T07:56:54.448Z,3.19
2023-02-11T07:59:21.294Z,3.46
2023-02-11T08:01:48.164Z,3.59
2023-02-11T08:04:14.889Z,3.97
2023-02-11T08:06:42.883Z,3.72
2023-02-11T08:09:23.926Z,4.06
2023-02-11T08:11:50.624Z,4.30
2023-02-11T08:14:24.823Z,4.16
2023-02-11T08:19:35.336Z,4.67
2023-02-11T08:22:02.125Z,5.03
2023-02-11T08:24:30.046Z,4.91
2023-02-11T08:26:56.715Z,4.79
2023-02-11T08:29:23.491Z,4.87
2023-02-11T08:31:50.330Z,5.17
2023-02-11T08:34:17.670Z,5.18
2023-02-11T08:36:49.398Z,4.95
2023-02-11T08:39:22.524Z,5.07
2023-02-11T08:41:57.010Z,4.90
2023-02-11T08:44:25.086Z,5.40
2023-02-11T08:52:28.108Z,5.68
2023-02-11T08:54:58.293Z,5.66
2023-02-11T08:57:34.922Z,5.61
2023-02-11T09:00:13.869Z,5.67
2023-02-11T09:02:47.076Z,5.87
2023-02-11T09:05:14.288Z,5.76
2023-02-11T09:07:50.171Z,5.85
2023-02-11T09:10:16.959Z,5.83
2023-02-11T09:12:46.600Z,5.59
2023-02-11T09:15:23.383Z,5.85
2023-02-11T09:17:50.057Z,5.99
2023-02-11T09:20:18.701Z,6.04
2023-02-11T09:22:48.658Z,5.61
2023-02-11T09:25:22.943Z,5.68
2023-02-11T09:27:58.243Z,5.86
2023-02-11T09:30:27.763Z,5.64
2023-02-11T09:33:22.074Z,5.65
2023-02-11T09:35:51.598Z,6.20
2023-02-11T09:38:23.167Z,6.21
2023-02-11T09:40:50.154Z,6.24
2023-02-11T09:43:35.875Z,6.45
2023-02-11T09:48:45.730Z,6.52
2023-02-11T09:51:35.193Z,6.79
2023-02-11T09:54:23.925Z,6.71
2023-02-11T09:56:53.031Z,7.07
2023-02-11T09:59:24.975Z,6.66
2023-02-11T10:01:59.113Z,6.46
2023-02-11T10:04:47.638Z,6.68
2023-02-11T10:07:41.936Z,6.68
2023-02-11T10:10:27.514Z,6.65
2023-02-11T10:12:56.716Z,6.89
2023-02-11T10:15:55.502Z,7.18
2023-02-11T10:18:42.351Z,6.99
2023-02-11T10:21:27.294Z,6.87
2023-02-11T10:23:59.285Z,7.18
2023-02-11T10:26:30.192Z,7.08
2023-02-11T10:29:02.003Z,7.14
2023-02-11T10:31:41.481Z,7.26
2023-02-11T10:34:13.199Z,7.14
2023-02-11T10:36:47.366Z,7.28
2023-02-11T10:39:26.144Z,7.61
2023-02-11T10:41:58.704Z,7.59
2023-02-11T10:44:37.671Z,7.39
2023-02-11T10:47:27.916Z,7.72
2023-02-11T10:50:00.949Z,7.64
2023-02-11T10:52:43.680Z,7.61
2023-02-11T10:55:14.340Z,7.50
2023-02-11T10:57:55.662Z,7.53
2023-02-11T11:00:38.904Z,7.71
2023-02-11T11:03:21.315Z,7.69
2023-02-11T11:06:15.916Z,7.64
2023-02-11T11:08:52.642Z,7.65
2023-02-11T11:11:35.620Z,7.87
2023-02-11T11:14:02.543Z,7.69
2023-02-11T11:16:30.827Z,7.52
2023-02-11T11:19:09.340Z,7.96
2023-02-11T11:21:53.903Z,7.92
2023-02-11T11:24:22.297Z,7.90
2023-02-11T11:26:52.402Z,7.62
2023-02-11T11:29:42.665Z,7.70
2023-02-11T11:32:15.014Z,7.89
2023-02-11T11:34:43.905Z,7.86
2023-02-11T11:37:20.709Z,7.94
2023-02-11T11:40:19.338Z,8.13
2023-02-11T11:42:46.066Z,7.79
2023-02-11T11:45:15.782Z,8.06
2023-02-11T11:48:13.434Z,8.03
2023-02-11T11:50:44.281Z,8.17
2023-02-11T11:53:21.250Z,8.24
2023-02-11T11:56:03.584Z,8.20
2023-02-11T11:58:33.046Z,8.05
2023-02-11T12:01:25.135Z,8.35
2023-02-11T12:04:30.345Z,8.21
2023-02-11T12:07:40.195Z,8.27
2023-02-11T12:10:40.120Z,8.15
2023-02-11T12:13:29.945Z,8.73
2023-02-11T12:16:31.941Z,8.68
2023-02-11T12:19:26.907Z,8.82
2023-02-11T12:22:10.541Z,8.76
2023-02-11T12:24:37.116Z,8.70
2023-02-11T12:27:27.089Z,8.74
2023-02-11T12:30:15.109Z,8.78
2023-02-11T12:32:50.754Z,8.96
2023-02-11T12:35:26.815Z,8.73
2023-02-11T12:38:05.312Z,8.85
2023-02-11T12:41:02.130Z,8.87
2023-02-11T12:43:40.497Z,8.62
2023-02-11T12:46:47.065Z,8.91
2023-02-11T12:49:31.365Z,8.61
2023-02-11T12:52:18.960Z,8.56
2023-02-11T12:55:04.407Z,8.67
2023-02-11T12:57:40.625Z,8.71
2023-02-11T13:00:13.749Z,8.87
2023-02-11T13:02:48.606Z,8.78
2023-02-11T13:05:40.379Z,8.60
2023-02-11T13:08:35.560Z,8.76
2023-02-11T13:11:14.476Z,8.60
2023-02-11T13:14:09.365Z,8.70
2023-02-11T13:16:44.435Z,8.65
2023-02-11T13:19:14.233Z,9.25
2023-02-11T13:22:29.533Z,9.20
2023-02-11T13:25:06.836Z,8.98
2023-02-11T13:28:06.217Z,8.77
2023-02-11T13:30:45.567Z,8.91
2023-02-11T13:33:32.266Z,9.06
2023-02-11T13:36:04.352Z,8.97
2023-02-11T13:38:38.438Z,8.87
2023-02-11T13:41:29.988Z,8.85
2023-02-11T13:44:02.475Z,8.94
2023-02-11T13:46:47.923Z,9.17
2023-02-11T13:49:29.773Z,9.10
2023-02-11T13:51:57.321Z,9.24
2023-02-11T13:54:29.371Z,9.17
2023-02-11T13:57:21.191Z,9.26
2023-02-11T13:59:49.395Z,9.18
2023-02-11T14:02:47.659Z,9.20
2023-02-11T14:05:20.486Z,9.01
2023-02-11T14:08:12.205Z,9.03
2023-02-11T14:10:45.717Z,8.99
2023-02-11T14:13:32.570Z,8.95
2023-02-11T14:16:17.087Z,8.83
2023-02-11T14:18:58.182Z,9.00
2023-02-11T14:21:28.056Z,9.03
2023-02-11T14:24:22.184Z,8.85
2023-02-11T14:27:04.580Z,8.81
2023-02-11T14:29:41.034Z,8.89
2023-02-11T14:32:45.472Z,8.87
2023-02-11T14:35:41.234Z,8.97
2023-02-11T14:38:32.579Z,8.92
2023-02-11T14:41:31.657Z,8.99
2023-02-11T14:44:19.472Z,8.85
2023-02-11T14:47:02.715Z,9.04
2023-02-11T14:49:35.772Z,9.13
2023-02-11T14:55:09.358Z,9.30
2023-02-11T14:57:43.183Z,8.87
2023-02-11T15:00:23.452Z,8.75
2023-02-11T15:02:50.224Z,9.05
2023-02-11T15:05:23.693Z,9.07
2023-02-11T15:10:44.818Z,9.10
2023-02-11T15:13:30.773Z,9.44
2023-02-11T15:16:09.459Z,8.99
2023-02-11T15:19:04.875Z,8.83
2023-02-11T15:21:37.221Z,8.99
2023-02-11T15:24:30.969Z,9.08
2023-02-11T15:27:24.051Z,9.31
2023-02-11T15:29:56.191Z,9.02
2023-02-11T15:32:29.007Z,8.66
2023-02-11T15:35:00.702Z,8.58
2023-02-11T15:37:30.706Z,8.48
2023-02-11T15:40:16.184Z,8.55
2023-02-11T15:43:00.569Z,8.45
2023-02-11T15:46:06.189Z,8.49
2023-02-11T15:48:58.974Z,8.37
2023-02-11T15:51:36.622Z,8.46
2023-02-11T15:54:23.927Z,8.30
2023-02-11T15:57:04.342Z,8.19
2023-02-11T15:59:45.785Z,8.26
2023-02-11T16:02:39.583Z,8.09
2023-02-11T16:05:32.265Z,8.02
2023-02-11T16:08:23.053Z,7.88
2023-02-11T16:11:03.933Z,7.69
2023-02-11T16:13:45.112Z,7.61
2023-02-11T16:16:27.959Z,7.64
2023-02-11T16:19:05.986Z,7.55
2023-02-11T16:21:41.685Z,7.49
2023-02-11T16:24:16.162Z,7.56
2023-02-11T16:26:55.856Z,7.64
2023-02-11T16:29:31.709Z,7.61
2023-02-11T16:32:32.338Z,7.43
2023-02-11T16:35:14.988Z,7.16
2023-02-11T16:37:41.670Z,7.03
2023-02-11T16:40:09.725Z,6.93
2023-02-11T16:42:36.450Z,6.92
2023-02-11T16:45:03.532Z,6.82
2023-02-11T16:47:37.805Z,6.74
2023-02-11T16:50:09.763Z,6.67
2023-02-11T16:52:40.346Z,6.61
2023-02-11T16:55:07.151Z,6.52
2023-02-11T16:57:36.680Z,6.47
2023-02-11T17:00:06.936Z,6.41
2023-02-11T17:02:38.608Z,6.36
2023-02-11T17:05:08.779Z,6.26
2023-02-11T17:07:35.472Z,6.22
2023-02-11T17:12:33.760Z,6.09
2023-02-11T17:15:08.216Z,6.10
2023-02-11T17:17:41.538Z,6.05
2023-02-11T17:20:11.039Z,6.02
2023-02-11T17:22:40.126Z,6.01
2023-02-11T17:25:07.352Z,5.97
2023-02-11T17:27:34.094Z,6.01
2023-02-11T17:30:08.311Z,5.95
2023-02-11T17:32:37.866Z,5.97
2023-02-11T17:35:05.554Z,5.94
2023-02-11T17:37:38.384Z,5.88
2023-02-11T17:40:05.941Z,5.84
2023-02-11T17:42:34.999Z,5.85
2023-02-11T17:45:01.619Z,5.78
2023-02-11T17:47:36.793Z,5.75
2023-02-11T17:50:06.696Z,5.72
2023-02-11T17:52:35.049Z,5.69
2023-02-11T17:55:06.553Z,5.65
2023-02-11T17:57:36.600Z,5.66
2023-02-11T18:00:05.797Z,5.65
2023-02-11T18:02:43.248Z,5.60
2023-02-11T18:05:10.829Z,5.60
2023-02-11T18:07:37.680Z,5.52
2023-02-11T18:10:14.105Z,5.46
2023-02-11T18:12:40.771Z,5.46
2023-02-11T18:15:07.630Z,5.43
2023-02-11T18:17:34.354Z,5.41
2023-02-11T18:20:01.071Z,5.47
2023-02-11T18:22:35.938Z,5.47
2023-02-11T18:25:03.724Z,5.39
2023-02-11T18:27:30.790Z,5.35
2023-02-11T18:30:00.928Z,5.36
2023-02-11T18:32:27.789Z,5.30
2023-02-11T18:34:56.874Z,5.33
2023-02-11T18:37:46.588Z,5.67
2023-02-11T18:40:17.778Z,5.62
2023-02-11T18:42:50.468Z,5.51
2023-02-11T18:45:19.901Z,5.47
2023-02-11T18:47:46.569Z,5.49
2023-02-11T18:50:17.487Z,5.49
2023-02-11T18:52:49.984Z,5.40
2023-02-11T18:55:17.672Z,5.32
2023-02-11T18:57:44.391Z,5.35
2023-02-11T19:00:22.512Z,5.35
2023-02-11T19:03:00.092Z,5.28
2023-02-11T19:05:26.966Z,5.25
2023-02-11T19:07:58.579Z,5.18
2023-02-11T19:10:25.756Z,5.51
2023-02-11T19:12:56.465Z,5.72
2023-02-11T19:15:23.350Z,5.49
2023-02-11T19:17:49.971Z,5.30
2023-02-11T19:20:20.278Z,5.54
2023-02-11T19:22:52.797Z,5.40
2023-02-11T19:25:22.259Z,5.39
2023-02-11T19:27:48.888Z,5.47
2023-02-11T19:30:15.554Z,5.48
2023-02-11T19:32:42.190Z,5.58
2023-02-11T19:35:10.861Z,5.51
2023-02-11T19:37:40.634Z,5.45
2023-02-11T19:40:11.006Z,5.40
2023-02-11T19:42:39.400Z,5.30
2023-02-11T19:45:08.815Z,5.15
2023-02-11T19:47:35.822Z,5.15
2023-02-11T19:50:02.782Z,5.28
2023-02-11T19:52:29.449Z,5.20
2023-02-11T19:54:59.197Z,4.99
2023-02-11T19:57:28.730Z,4.88
2023-02-11T19:59:55.409Z,5.03
2023-02-11T20:02:25.240Z,5.05
2023-02-11T20:04:51.876Z,5.17
2023-02-11T20:07:18.516Z,5.14
2023-02-11T20:09:45.337Z,5.21
2023-02-11T20:12:12.136Z,5.43
2023-02-11T20:14:47.748Z,5.26
2023-02-11T20:17:17.682Z,5.00
2023-02-11T20:19:44.291Z,5.10
2023-02-11T20:22:10.954Z,5.06
2023-02-11T20:24:37.609Z,5.14
2023-02-11T20:27:04.353Z,4.97
2023-02-11T20:29:30.981Z,4.89
2023-02-11T20:31:57.826Z,4.81
2023-02-11T20:34:24.613Z,4.68
2023-02-11T20:36:53.119Z,4.80
2023-02-11T20:39:22.062Z,4.63
2023-02-11T20:41:50.108Z,4.63
2023-02-11T20:44:20.667Z,4.69
2023-02-11T20:46:47.937Z,4.68
2023-02-11T20:49:18.940Z,4.75
2023-02-11T20:51:53.732Z,4.62
2023-02-11T20:54:36.729Z,4.56
2023-02-11T20:57:03.598Z,4.53
2023-02-11T20:59:31.070Z,4.41
2023-02-11T21:01:58.191Z,4.38
2023-02-11T21:04:30.787Z,4.46
2023-02-11T21:07:00.216Z,4.44
2023-02-11T21:09:30.052Z,4.53
2023-02-11T21:12:05.248Z,4.44
2023-02-11T21:14:40.369Z,4.39
2023-02-11T21:17:07.432Z,4.32
2023-02-11T21:19:34.112Z,4.25
2023-02-11T21:22:01.289Z,4.16
2023-02-11T21:24:31.844Z,4.21
2023-02-11T21:26:59.630Z,4.33
2023-02-11T21:29:29.929Z,4.36
2023-02-11T21:32:02.167Z,4.39
2023-02-11T21:34:36.858Z,4.41
2023-02-11T21:37:07.622Z,4.38
2023-02-11T21:39:34.329Z,4.30
2023-02-11T21:42:30.061Z,4.28
2023-02-11T21:44:57.488Z,4.24
2023-02-11T21:47:31.595Z,4.17
2023-02-11T21:50:01.249Z,4.03
2023-02-11T21:52:31.344Z,3.95
2023-02-11T21:54:57.977Z,4.02
2023-02-11T21:57:25.027Z,4.01
2023-02-11T21:59:54.857Z,3.99
2023-02-11T22:02:23.527Z,3.99
2023-02-11T22:04:52.840Z,3.84
2023-02-11T22:07:25.886Z,3.83
2023-02-11T22:10:00.724Z,3.74
2023-02-11T22:12:36.828Z,3.70
2023-02-11T22:15:03.664Z,3.75
2023-02-11T22:17:30.639Z,3.72
2023-02-11T22:20:13.744Z,3.77
2023-02-11T22:22:53.217Z,3.84
2023-02-11T22:25:29.622Z,3.79
2023-02-11T22:27:57.257Z,3.67
2023-02-11T22:30:25.264Z,3.67
2023-02-11T22:32:51.969Z,3.59
2023-02-11T22:35:18.656Z,3.60
2023-02-11T22:37:45.480Z,3.58
2023-02-11T22:40:12.973Z,3.72
2023-02-11T22:42:48.155Z,3.91
2023-02-11T22:45:14.859Z,3.90
2023-02-11T22:47:47.725Z,3.83
2023-02-11T22:50:14.444Z,3.81
2023-02-11T22:52:44.514Z,3.85
2023-02-11T22:55:22.094Z,3.89
2023-02-11T22:57:53.253Z,3.91
2023-02-11T23:00:30.903Z,3.91
2023-02-11T23:03:00.237Z,3.85
2023-02-11T23:05:29.748Z,3.86
2023-02-11T23:07:59.615Z,3.93
2023-02-11T23:10:31.907Z,3.98
2023-02-11T23:13:03.688Z,3.80
2023-02-11T23:15:33.927Z,3.73
2023-02-11T23:18:00.807Z,3.83
2023-02-11T23:20:27.615Z,3.93
2023-02-11T23:23:11.690Z,4.05
2023-02-11T23:25:47.509Z,4.06
2023-02-11T23:28:16.936Z,3.89
2023-02-11T23:30:54.903Z,3.84
2023-02-11T23:33:22.218Z,3.77
2023-02-11T23:35:52.194Z,3.70
2023-02-11T23:38:34.888Z,3.90
2023-02-11T23:41:07.748Z,3.91
2023-02-11T23:43:40.195Z,3.85
2023-02-11T23:46:10.117Z,3.96
2023-02-11T23:48:45.852Z,4.02
2023-02-11T23:51:12.833Z,3.88
2023-02-11T23:53:45.367Z,4.16
2023-02-11T23:56:22.885Z,4.20
2023-02-11T23:58:56.312Z,4.01
